This is the latest recevied weather packets stored in our database for station/object G1YBJ-13. If no packets are shown the sender has not sent any weather packets the latest 10 day(s).
| Time | Temp. | Humidity | Pressure | Rain* | Wind** | Luminosity | Snow |
|---|---|---|---|---|---|---|---|
| 1777755948 | 15° C | 81% | 1011.7 hPa | - | - | - | - |
| 1777755047 | 15° C | 83% | 1011.7 hPa | - | - | - | - |
| 1777754145 | 15° C | 84% | 1011.8 hPa | - | - | - | - |
| 1777753245 | 15° C | 81% | 1012 hPa | - | - | - | - |
| 1777752342 | 15° C | 81% | 1012 hPa | - | - | - | - |
| 1777751440 | 15° C | 82% | 1011.9 hPa | - | - | - | - |
| 1777750538 | 15° C | 82% | 1012 hPa | - | - | - | - |
| 1777749637 | 15° C | 82% | 1012.1 hPa | - | - | - | - |
| 1777748736 | 15.56° C | 82% | 1012.5 hPa | - | - | - | - |
| 1777747835 | 15° C | 81% | 1012.3 hPa | - | - | - | - |
| 1777746934 | 15° C | 85% | 1012.7 hPa | - | - | - | - |
| 1777746033 | 15.56° C | 83% | 1012.7 hPa | - | - | - | - |
| 1777745132 | 17.22° C | 79% | 1012.5 hPa | - | - | - | - |
| 1777744231 | 20.56° C | 60% | 1011.8 hPa | - | - | - | - |
| 1777743328 | 21.11° C | 58% | 1011.4 hPa | - | - | - | - |
| 1777742427 | 22.22° C | 55% | 1011.5 hPa | - | - | - | - |
| 1777741525 | 22.22° C | 54% | 1011.7 hPa | - | - | - | - |
| 1777740624 | 22.78° C | 54% | 1012 hPa | - | - | - | - |
| 1777739724 | 23.33° C | 52% | 1012.2 hPa | - | - | - | - |
| 1777738822 | 24.44° C | 51% | 1012.5 hPa | - | - | - | - |
| 1777737919 | 24.44° C | 51% | 1012.8 hPa | - | - | - | - |
| 1777737018 | 24.44° C | 50% | 1013 hPa | - | - | - | - |
| 1777736118 | 24.44° C | 50% | 1013.2 hPa | - | - | - | - |
| 1777735216 | 25.56° C | 49% | 1013.5 hPa | - | - | - | - |
| 1777734315 | 26.11° C | 48% | 1013.8 hPa | - | - | - | - |
* Rain since midnight (hover to see other rain measurements)
** Current wind speed in m/s (hover to see current wind gust speed)